Flight Track Log - Related Links

Times and Time Zones

All times are in EDT time to prevent confusion due to time zone crossing. See the SWA2139 flight status page for this flight to view local times or setup timezone preferences in your user account.

Time Position Orientation Groundspeed Altitude Reporting Facility
EDT Latitude Longitude Course Direction KTS MPH feet Rate Location/Type
Mon 08:34:13 AM 30.1681 -97.7508 278° West 243 280 5,700  Level Houston Center
Mon 08:35:15 AM 30.2333 -97.8031 325° Northwest 276 318 9,200 2,710 Climbing Houston Center
Mon 08:36:17 AM 30.3031 -97.8536 328° Northwest 288 331 11,300 2,585 Climbing Houston Center
Mon 08:37:18 AM 30.3406 -97.9522 294° West 349 402 14,500 3,171 Climbing Houston Center
Mon 08:38:00 AM 30.4167 -97.9415 270° West  Level FlightAware Approximate
Mon 08:38:20 AM 30.3569 -98.0675 279° West 358 412 17,800  Level Houston Center
Mon 08:39:00 AM 30.4232 -98.0554 278° West  Level FlightAware Approximate
Mon 08:39:21 AM 30.3744 -98.1847 280° West 363 418 20,900  Level Houston Center
Mon 08:40:23 AM 30.3917 -98.3067 279° West 377 434 23,500 2,371 Climbing Houston Center
Mon 08:41:25 AM 30.4089 -98.4319 279° West 388 447 25,800 2,098 Climbing Houston Center
Mon 08:42:26 AM 30.4264 -98.5606 279° West 398 458 27,800 2,195 Climbing Houston Center
Mon 08:43:28 AM 30.4456 -98.6922 280° West 408 470 30,300 2,565 Climbing Houston Center
Mon 08:44:30 AM 30.4653 -98.8389 279° West 393 452 33,100 2,634 Climbing Houston Center
Mon 08:45:31 AM 30.4844 -98.9583 281° West 377 434 35,700 1,415 Climbing Houston Center
Mon 08:46:33 AM 30.4989 -99.0731 278° West 359 413 36,000 146 Climbing Houston Center
Mon 08:47:34 AM 30.5167 -99.1925 280° West 361 415 36,000  Level Houston Center
Mon 08:48:36 AM 30.5317 -99.3067 279° West 360 414 36,000  Level Houston Center
Mon 08:49:38 AM 30.5458 -99.4222 278° West 363 418 36,000  Level Houston Center
Mon 08:50:39 AM 30.5622 -99.5372 279° West 363 418 36,000  Level Houston Center
Mon 08:51:41 AM 30.5775 -99.6522 279° West 365 420 36,000  Level Houston Center
Mon 08:52:43 AM 30.5917 -99.7669 278° West 361 415 36,000  Level Houston Center
Mon 08:53:44 AM 30.6164 -99.9056 282° West 366 421 36,000  Level Houston Center
Mon 08:54:46 AM 30.6400 -100.0192 284° West 365 420 36,000  Level Houston Center
Mon 08:55:48 AM 30.6628 -100.1333 283° West 366 421 36,000  Level Houston Center
Mon 08:56:49 AM 30.6850 -100.2483 283° West 367 422 36,000  Level Houston Center
Mon 08:57:51 AM 30.7086 -100.3628 284° West 366 421 36,000  Level Houston Center
Mon 08:58:53 AM 30.7308 -100.4778 283° West 367 422 36,000  Level Houston Center
Mon 08:59:54 AM 30.7542 -100.5936 283° West 369 425 36,000  Level Houston Center
Mon 09:00:56 AM 30.7819 -100.7303 283° West 365 420 36,000  Level Houston Center
Mon 09:01:58 AM 30.8036 -100.8444 282° West 363 418 36,000  Level Houston Center
Mon 09:03:00 AM 30.8258 -100.9622 282° West 367 422 36,000  Level Houston Center
Mon 09:04:01 AM 30.8489 -101.0781 283° West 369 425 36,000  Level Houston Center
Mon 09:05:03 AM 30.8714 -101.1936 283° West 369 425 36,000  Level Houston Center
Mon 09:06:05 AM 30.8939 -101.3092 283° West 369 425 36,000  Level Houston Center
Mon 09:07:06 AM 30.9186 -101.4522 281° West 371 427 36,000  Level Houston Center
Mon 09:08:08 AM 30.9406 -101.5700 282° West 373 429 36,000  Level Houston Center
Mon 09:09:08 AM 30.9625 -101.6747 284° West 375 432 36,000  Level Albuquerque Center
Mon 09:10:08 AM 30.9844 -101.7931 282° West 374 430 36,000  Level Albuquerque Center
Mon 09:11:09 AM 31.0064 -101.9119 282° West 375 432 36,000  Level Albuquerque Center
Mon 09:12:09 AM 31.0286 -102.0314 282° West 376 433 36,000  Level Albuquerque Center
Mon 09:13:10 AM 31.0506 -102.1500 282° West 376 433 36,000  Level Albuquerque Center
Mon 09:14:11 AM 31.0717 -102.2689 282° West 375 432 36,000  Level Albuquerque Center
Mon 09:15:11 AM 31.0989 -102.4131 282° West 378 435 36,000  Level Albuquerque Center
Mon 09:16:12 AM 31.1208 -102.5336 282° West 379 436 36,000  Level Albuquerque Center
Mon 09:17:13 AM 31.1431 -102.6542 282° West 380 437 36,000  Level Albuquerque Center
Mon 09:18:14 AM 31.1636 -102.7758 281° West 381 438 36,000  Level Albuquerque Center
Mon 09:19:14 AM 31.1858 -102.8961 282° West 380 437 36,000  Level Albuquerque Center
Mon 09:20:15 AM 31.2075 -103.0158 282° West 379 436 36,000  Level Albuquerque Center
Mon 09:21:16 AM 31.2286 -103.1381 281° West 381 438 36,000  Level Albuquerque Center
Mon 09:22:17 AM 31.2508 -103.2622 282° West 381 438 36,000  Level Albuquerque Center
Mon 09:23:17 AM 31.2717 -103.3822 282° West 380 437 36,000  Level Albuquerque Center
Mon 09:24:18 AM 31.2914 -103.5031 281° West 380 437 36,000  Level Albuquerque Center
Mon 09:25:19 AM 31.3136 -103.6242 282° West 381 438 36,000  Level Albuquerque Center
Mon 09:26:20 AM 31.3344 -103.7467 281° West 383 441 36,000  Level Albuquerque Center
Mon 09:27:21 AM 31.3547 -103.8678 281° West 384 442 36,000  Level Albuquerque Center
Mon 09:28:21 AM 31.3744 -103.9894 281° West 383 441 36,000  Level Albuquerque Center
Mon 09:29:22 AM 31.3956 -104.1119 281° West 386 444 36,000  Level Albuquerque Center
Mon 09:30:23 AM 31.4164 -104.2331 281° West 384 442 36,000  Level Albuquerque Center
Mon 09:31:24 AM 31.4375 -104.3553 281° West 384 442 36,000  Level Albuquerque Center
Mon 09:32:25 AM 31.4553 -104.4753 280° West 379 436 36,000 -99 Level Albuquerque Center
Mon 09:33:25 AM 31.4708 -104.6219 277° West 381 438 35,800 -1,884 Descending Albuquerque Center
Mon 09:34:26 AM 31.4828 -104.7428 277° West 377 434 32,200 -3,000 Descending Albuquerque Center
Mon 09:35:27 AM 31.4958 -104.8708 277° West 392 451 29,700 -2,410 Descending Albuquerque Center
Mon 09:36:28 AM 31.5097 -105.0008 277° West 403 464 27,300 -2,361 Descending Albuquerque Center
Mon 09:37:29 AM 31.5228 -105.1256 277° West 394 453 24,900 -2,361 Descending Albuquerque Center
Mon 09:38:30 AM 31.5339 -105.2458 276° West 381 438 22,500 -2,262 Descending Albuquerque Center
Mon 09:39:31 AM 31.5461 -105.3661 277° West 376 433 20,300 -2,164 Descending Albuquerque Center
Mon 09:40:32 AM 31.5575 -105.4797 277° West 357 411 18,100 -2,016 Descending Albuquerque Center
Mon 09:41:33 AM 31.5669 -105.5906 276° West 346 398 16,200 -1,967 Descending Albuquerque Center
Mon 09:42:34 AM 31.5775 -105.6972 277° West 332 382 14,100 -2,262 Descending Albuquerque Center
Mon 09:43:35 AM 31.5956 -105.8197 280° West 321 369 11,600 -1,884 Descending Albuquerque Center
Mon 09:44:35 AM 31.6403 -105.9053 302° West 308 354 10,300 -1,339 Descending Albuquerque Center
Mon 09:45:36 AM 31.6797 -105.9833 301° West 280 322 8,900 -1,180 Descending Albuquerque Center
Mon 09:46:37 AM 31.7167 -106.0561 301° West 260 299 7,900 -927 Descending Albuquerque Center
Mon 09:47:39 AM 31.7456 -106.1281 295° West 247 284 7,000 -923 Descending Albuquerque Center
Mon 09:47:55 AM 31.7533 -106.1578 287° West 245 282 6,700 -492 Descending Albuquerque Center
Mon 09:48:40 AM 31.7692 -106.2031 292° West 246 283 6,500 -197 Descending Albuquerque Center
Mon 09:48:56 AM 31.7767 -106.2267 290° West 220 253 6,500 -492 Level Albuquerque Center
Mon 09:49:41 AM 31.7881 -106.2608 291° West 190 219 6,000 -689 Descending Albuquerque Center
Mon 09:49:57 AM 31.7922 -106.2778 286° West 148 170 5,800 -1,082 Descending Albuquerque Center
Mon 09:50:42 AM 31.7978 -106.3061 283° West 147 169 4,900 -1,200 Descending Albuquerque Center
Mon 09:50:57 AM 31.7986 -106.3239 273° West 136 157 4,600 -885 Descending Albuquerque Center
Mon 09:51:43 AM 31.8014 -106.3611 275° West 145 167 4,000 -783 Descending Albuquerque Center
Mon 09:53:00 AM 31.8000 -106.3667 291° West  Level FlightAware Approximate
Mon 10:00:00 AM 31.8072 -106.3764 291° West  Level Estimated
Mon 10:01:00 AM 31.8072 -106.3764 291° West  Level Estimated
Mon 10:02:00 AM 31.8072 -106.3764 291° West  Level Estimated
Mon 10:03:00 AM 31.8072 -106.3764 291° West  Level Estimated

Login

Don't have an account? Register now (free) for customized features, flight alerts, and more!